sensor_id;sensor_type;location;lat;lon;timestamp;pressure;altitude;pressure_sealevel;temperature;humidity
57606;BME280;43430;48.204;11.556;2023-07-08T00:00:17;96168.59;;;18.21;100.00
57606;BME280;43430;48.204;11.556;2023-07-08T00:02:44;96157.09;;;18.15;100.00
57606;BME280;43430;48.204;11.556;2023-07-08T00:05:11;96152.03;;;18.03;100.00
57606;BME280;43430;48.204;11.556;2023-07-08T00:07:38;96151.72;;;17.95;100.00
57606;BME280;43430;48.204;11.556;2023-07-08T00:10:14;96152.53;;;17.90;100.00
57606;BME280;43430;48.204;11.556;2023-07-08T00:12:41;96159.22;;;17.93;100.00
57606;BME280;43430;48.204;11.556;2023-07-08T00:15:08;96152.78;;;17.89;100.00
57606;BME280;43430;48.204;11.556;2023-07-08T00:17:33;96150.34;;;17.82;100.00
57606;BME280;43430;48.204;11.556;2023-07-08T00:19:59;96150.91;;;17.84;100.00
57606;BME280;43430;48.204;11.556;2023-07-08T00:22:24;96147.69;;;17.82;100.00
57606;BME280;43430;48.204;11.556;2023-07-08T00:24:50;96145.03;;;17.77;100.00
57606;BME280;43430;48.204;11.556;2023-07-08T00:27:16;96140.97;;;17.69;100.00
57606;BME280;43430;48.204;11.556;2023-07-08T00:29:41;96137.50;;;17.69;100.00
57606;BME280;43430;48.204;11.556;2023-07-08T00:32:12;96140.16;;;17.64;100.00
57606;BME280;43430;48.204;11.556;2023-07-08T00:34:38;96148.66;;;17.61;100.00
57606;BME280;43430;48.204;11.556;2023-07-08T00:37:04;96147.88;;;17.60;100.00
57606;BME280;43430;48.204;11.556;2023-07-08T00:39:31;96146.00;;;17.61;100.00
57606;BME280;43430;48.204;11.556;2023-07-08T00:41:58;96149.75;;;17.60;100.00
57606;BME280;43430;48.204;11.556;2023-07-08T00:44:24;96149.19;;;17.58;100.00
57606;BME280;43430;48.204;11.556;2023-07-08T00:47:04;96149.97;;;17.53;100.00
57606;BME280;43430;48.204;11.556;2023-07-08T00:49:52;96154.75;;;17.46;100.00
57606;BME280;43430;48.204;11.556;2023-07-08T00:52:20;96151.00;;;17.42;100.00
57606;BME280;43430;48.204;11.556;2023-07-08T00:54:49;96147.56;;;17.41;100.00
57606;BME280;43430;48.204;11.556;2023-07-08T00:57:15;96155.00;;;17.39;100.00
57606;BME280;43430;48.204;11.556;2023-07-08T01:00:05;96157.38;;;17.41;100.00
57606;BME280;43430;48.204;11.556;2023-07-08T01:02:38;96155.75;;;17.29;100.00
57606;BME280;43430;48.204;11.556;2023-07-08T01:05:09;96150.94;;;17.21;100.00
57606;BME280;43430;48.204;11.556;2023-07-08T01:07:38;96152.50;;;17.17;100.00
57606;BME280;43430;48.204;11.556;2023-07-08T01:10:10;96149.56;;;17.14;100.00
57606;BME280;43430;48.204;11.556;2023-07-08T01:12:41;96142.38;;;17.14;100.00
57606;BME280;43430;48.204;11.556;2023-07-08T01:15:09;96142.09;;;17.16;100.00
57606;BME280;43430;48.204;11.556;2023-07-08T01:17:35;96144.50;;;17.17;100.00
57606;BME280;43430;48.204;11.556;2023-07-08T01:20:02;96146.34;;;17.17;100.00
57606;BME280;43430;48.204;11.556;2023-07-08T01:22:35;96151.16;;;17.20;100.00
57606;BME280;43430;48.204;11.556;2023-07-08T01:25:02;96155.69;;;17.19;100.00
57606;BME280;43430;48.204;11.556;2023-07-08T01:27:31;96157.00;;;17.12;100.00
57606;BME280;43430;48.204;11.556;2023-07-08T01:29:59;96153.78;;;17.09;100.00
57606;BME280;43430;48.204;11.556;2023-07-08T01:32:25;96153.25;;;17.07;100.00
57606;BME280;43430;48.204;11.556;2023-07-08T01:34:52;96155.13;;;17.12;100.00
57606;BME280;43430;48.204;11.556;2023-07-08T01:37:37;96161.72;;;16.99;100.00
57606;BME280;43430;48.204;11.556;2023-07-08T01:42:46;96173.34;;;16.83;100.00
57606;BME280;43430;48.204;11.556;2023-07-08T01:45:13;96172.84;;;16.91;100.00
57606;BME280;43430;48.204;11.556;2023-07-08T01:47:41;96168.16;;;17.03;100.00
57606;BME280;43430;48.204;11.556;2023-07-08T01:50:09;96169.00;;;17.14;100.00
57606;BME280;43430;48.204;11.556;2023-07-08T01:52:36;96158.28;;;17.04;100.00
57606;BME280;43430;48.204;11.556;2023-07-08T01:55:02;96155.34;;;17.05;100.00
57606;BME280;43430;48.204;11.556;2023-07-08T01:57:28;96157.72;;;16.97;100.00
57606;BME280;43430;48.204;11.556;2023-07-08T01:59:53;96161.59;;;16.79;100.00
57606;BME280;43430;48.204;11.556;2023-07-08T02:02:19;96160.38;;;16.65;100.00
57606;BME280;43430;48.204;11.556;2023-07-08T02:04:44;96161.16;;;16.60;100.00
57606;BME280;43430;48.204;11.556;2023-07-08T02:07:09;96153.94;;;16.55;100.00
57606;BME280;43430;48.204;11.556;2023-07-08T02:09:35;96155.78;;;16.55;100.00
57606;BME280;43430;48.204;11.556;2023-07-08T02:12:00;96155.28;;;16.58;100.00
57606;BME280;43430;48.204;11.556;2023-07-08T02:14:25;96156.41;;;16.62;100.00
57606;BME280;43430;48.204;11.556;2023-07-08T02:16:51;96150.50;;;16.60;100.00
57606;BME280;43430;48.204;11.556;2023-07-08T02:19:17;96158.50;;;16.60;100.00
57606;BME280;43430;48.204;11.556;2023-07-08T02:21:42;96152.09;;;16.61;100.00
57606;BME280;43430;48.204;11.556;2023-07-08T02:24:08;96154.03;;;16.66;100.00
57606;BME280;43430;48.204;11.556;2023-07-08T02:26:33;96146.13;;;16.76;100.00
57606;BME280;43430;48.204;11.556;2023-07-08T02:29:00;96155.97;;;16.75;100.00
57606;BME280;43430;48.204;11.556;2023-07-08T02:31:26;96148.44;;;16.72;100.00
57606;BME280;43430;48.204;11.556;2023-07-08T02:33:52;96144.97;;;16.67;100.00
57606;BME280;43430;48.204;11.556;2023-07-08T02:36:17;96147.38;;;16.68;100.00
57606;BME280;43430;48.204;11.556;2023-07-08T02:38:42;96142.81;;;16.64;100.00
57606;BME280;43430;48.204;11.556;2023-07-08T02:41:08;96148.56;;;16.50;100.00
57606;BME280;43430;48.204;11.556;2023-07-08T02:43:33;96147.78;;;16.50;100.00
57606;BME280;43430;48.204;11.556;2023-07-08T02:45:58;96147.72;;;16.45;100.00
57606;BME280;43430;48.204;11.556;2023-07-08T02:48:24;96146.41;;;16.42;100.00
57606;BME280;43430;48.204;11.556;2023-07-08T02:50:49;96142.16;;;16.46;100.00
57606;BME280;43430;48.204;11.556;2023-07-08T02:53:15;96147.59;;;16.29;100.00
57606;BME280;43430;48.204;11.556;2023-07-08T02:55:40;96148.41;;;16.30;100.00
57606;BME280;43430;48.204;11.556;2023-07-08T02:58:08;96153.72;;;16.30;100.00
57606;BME280;43430;48.204;11.556;2023-07-08T03:00:33;96156.44;;;16.35;100.00
57606;BME280;43430;48.204;11.556;2023-07-08T03:02:59;96157.75;;;16.32;100.00
57606;BME280;43430;48.204;11.556;2023-07-08T03:05:26;96151.63;;;16.32;100.00
57606;BME280;43430;48.204;11.556;2023-07-08T03:07:51;96150.78;;;16.26;100.00
57606;BME280;43430;48.204;11.556;2023-07-08T03:10:16;96148.97;;;16.32;100.00
57606;BME280;43430;48.204;11.556;2023-07-08T03:12:42;96150.84;;;16.31;100.00
57606;BME280;43430;48.204;11.556;2023-07-08T03:15:07;96152.66;;;16.31;100.00
57606;BME280;43430;48.204;11.556;2023-07-08T03:17:33;96154.53;;;16.30;100.00
57606;BME280;43430;48.204;11.556;2023-07-08T03:19:58;96156.38;;;16.25;100.00
57606;BME280;43430;48.204;11.556;2023-07-08T03:22:23;96155.84;;;16.28;100.00
57606;BME280;43430;48.204;11.556;2023-07-08T03:24:49;96156.38;;;16.30;100.00
57606;BME280;43430;48.204;11.556;2023-07-08T03:27:14;96161.72;;;16.30;100.00
57606;BME280;43430;48.204;11.556;2023-07-08T03:29:40;96159.91;;;16.35;100.00
57606;BME280;43430;48.204;11.556;2023-07-08T03:32:09;96151.72;;;16.42;100.00
57606;BME280;43430;48.204;11.556;2023-07-08T03:34:35;96151.41;;;16.38;100.00
57606;BME280;43430;48.204;11.556;2023-07-08T03:37:00;96138.66;;;16.41;100.00
57606;BME280;43430;48.204;11.556;2023-07-08T03:39:26;96136.53;;;16.43;100.00
57606;BME280;43430;48.204;11.556;2023-07-08T03:41:52;96133.63;;;16.44;100.00
57606;BME280;43430;48.204;11.556;2023-07-08T03:44:17;96143.22;;;16.45;100.00
57606;BME280;43430;48.204;11.556;2023-07-08T03:46:47;96141.09;;;16.47;100.00
57606;BME280;43430;48.204;11.556;2023-07-08T03:49:18;96144.31;;;16.49;100.00
57606;BME280;43430;48.204;11.556;2023-07-08T03:51:48;96145.38;;;16.48;100.00
57606;BME280;43430;48.204;11.556;2023-07-08T03:54:14;96144.56;;;16.48;100.00
57606;BME280;43430;48.204;11.556;2023-07-08T03:56:39;96154.16;;;16.49;100.00
57606;BME280;43430;48.204;11.556;2023-07-08T03:59:05;96145.38;;;16.48;100.00
57606;BME280;43430;48.204;11.556;2023-07-08T04:01:31;96153.88;;;16.45;100.00
57606;BME280;43430;48.204;11.556;2023-07-08T04:03:58;96154.19;;;16.54;100.00
57606;BME280;43430;48.204;11.556;2023-07-08T04:06:24;96160.31;;;16.54;100.00
57606;BME280;43430;48.204;11.556;2023-07-08T04:08:50;96165.63;;;16.54;100.00
57606;BME280;43430;48.204;11.556;2023-07-08T04:11:18;96157.25;;;16.35;100.00
57606;BME280;43430;48.204;11.556;2023-07-08T04:13:43;96158.97;;;16.20;100.00
57606;BME280;43430;48.204;11.556;2023-07-08T04:16:16;96159.31;;;16.28;100.00
57606;BME280;43430;48.204;11.556;2023-07-08T04:18:42;96165.34;;;16.51;100.00
57606;BME280;43430;48.204;11.556;2023-07-08T04:21:07;96161.09;;;16.55;100.00
57606;BME280;43430;48.204;11.556;2023-07-08T04:23:32;96161.41;;;16.58;100.00
57606;BME280;43430;48.204;11.556;2023-07-08T04:25:58;96156.69;;;16.66;100.00
57606;BME280;43430;48.204;11.556;2023-07-08T04:28:24;96160.66;;;16.63;100.00
57606;BME280;43430;48.204;11.556;2023-07-08T04:30:49;96154.38;;;16.74;100.00
57606;BME280;43430;48.204;11.556;2023-07-08T04:33:15;96156.25;;;16.79;100.00
57606;BME280;43430;48.204;11.556;2023-07-08T04:35:42;96156.03;;;16.85;100.00
57606;BME280;43430;48.204;11.556;2023-07-08T04:38:18;96162.47;;;16.90;100.00
57606;BME280;43430;48.204;11.556;2023-07-08T04:40:46;96174.16;;;16.89;100.00
57606;BME280;43430;48.204;11.556;2023-07-08T04:43:12;96176.53;;;16.80;100.00
57606;BME280;43430;48.204;11.556;2023-07-08T04:45:39;96181.97;;;16.68;100.00
57606;BME280;43430;48.204;11.556;2023-07-08T04:48:06;96189.66;;;16.59;100.00
57606;BME280;43430;48.204;11.556;2023-07-08T04:50:41;96205.25;;;16.78;100.00
57606;BME280;43430;48.204;11.556;2023-07-08T04:53:08;96209.63;;;16.94;100.00
57606;BME280;43430;48.204;11.556;2023-07-08T04:55:35;96212.94;;;17.12;100.00
57606;BME280;43430;48.204;11.556;2023-07-08T04:58:01;96204.00;;;17.33;100.00
57606;BME280;43430;48.204;11.556;2023-07-08T05:00:27;96215.69;;;17.27;100.00
57606;BME280;43430;48.204;11.556;2023-07-08T05:02:53;96214.59;;;17.18;100.00
57606;BME280;43430;48.204;11.556;2023-07-08T05:05:19;96223.50;;;17.39;100.00
57606;BME280;43430;48.204;11.556;2023-07-08T05:07:45;96235.63;;;17.19;100.00
57606;BME280;43430;48.204;11.556;2023-07-08T05:10:10;96222.59;;;17.23;100.00
57606;BME280;43430;48.204;11.556;2023-07-08T05:12:36;96227.47;;;17.31;100.00
57606;BME280;43430;48.204;11.556;2023-07-08T05:15:02;96228.78;;;17.28;100.00
57606;BME280;43430;48.204;11.556;2023-07-08T05:17:27;96238.94;;;17.37;100.00
57606;BME280;43430;48.204;11.556;2023-07-08T05:19:53;96245.69;;;17.49;100.00
57606;BME280;43430;48.204;11.556;2023-07-08T05:22:19;96233.03;;;17.29;100.00
57606;BME280;43430;48.204;11.556;2023-07-08T05:24:50;96219.53;;;17.51;100.00
57606;BME280;43430;48.204;11.556;2023-07-08T05:27:18;96232.31;;;17.44;100.00
57606;BME280;43430;48.204;11.556;2023-07-08T05:29:45;96234.13;;;17.33;100.00
57606;BME280;43430;48.204;11.556;2023-07-08T05:32:11;96239.03;;;17.52;100.00
57606;BME280;43430;48.204;11.556;2023-07-08T05:34:36;96234.78;;;17.61;100.00
57606;BME280;43430;48.204;11.556;2023-07-08T05:37:01;96229.22;;;17.63;100.00
57606;BME280;43430;48.204;11.556;2023-07-08T05:39:29;96227.63;;;17.14;100.00
57606;BME280;43430;48.204;11.556;2023-07-08T05:41:55;96231.75;;;17.37;100.00
57606;BME280;43430;48.204;11.556;2023-07-08T05:44:20;96225.03;;;17.77;100.00
57606;BME280;43430;48.204;11.556;2023-07-08T05:46:45;96215.75;;;17.90;100.00
57606;BME280;43430;48.204;11.556;2023-07-08T05:49:11;96207.22;;;17.93;100.00
57606;BME280;43430;48.204;11.556;2023-07-08T05:51:36;96212.25;;;17.89;100.00
57606;BME280;43430;48.204;11.556;2023-07-08T05:54:02;96207.19;;;17.88;100.00
57606;BME280;43430;48.204;11.556;2023-07-08T05:56:27;96203.78;;;18.02;100.00
57606;BME280;43430;48.204;11.556;2023-07-08T05:58:52;96201.94;;;18.23;100.00
57606;BME280;43430;48.204;11.556;2023-07-08T06:01:18;96188.34;;;18.15;100.00
57606;BME280;43430;48.204;11.556;2023-07-08T06:03:43;96185.41;;;18.26;100.00
57606;BME280;43430;48.204;11.556;2023-07-08T06:06:08;96187.28;;;18.36;100.00
57606;BME280;43430;48.204;11.556;2023-07-08T06:08:34;96191.56;;;18.53;100.00
57606;BME280;43430;48.204;11.556;2023-07-08T06:10:59;96198.53;;;18.59;100.00
57606;BME280;43430;48.204;11.556;2023-07-08T06:13:25;96201.19;;;18.59;100.00
57606;BME280;43430;48.204;11.556;2023-07-08T06:15:50;96200.38;;;18.68;100.00
57606;BME280;43430;48.204;11.556;2023-07-08T06:18:15;96201.72;;;18.71;100.00
57606;BME280;43430;48.204;11.556;2023-07-08T06:20:41;96209.75;;;18.66;100.00
57606;BME280;43430;48.204;11.556;2023-07-08T06:23:06;96201.19;;;18.69;100.00
57606;BME280;43430;48.204;11.556;2023-07-08T06:25:32;96194.81;;;18.80;100.00
57606;BME280;43430;48.204;11.556;2023-07-08T06:27:57;96187.84;;;19.10;100.00
57606;BME280;43430;48.204;11.556;2023-07-08T06:30:23;96183.47;;;19.39;100.00
57606;BME280;43430;48.204;11.556;2023-07-08T06:32:48;96176.97;;;19.66;100.00
57606;BME280;43430;48.204;11.556;2023-07-08T06:35:14;96181.19;;;19.77;100.00
57606;BME280;43430;48.204;11.556;2023-07-08T06:37:39;96181.16;;;19.87;100.00
57606;BME280;43430;48.204;11.556;2023-07-08T06:40:05;96185.06;;;20.05;100.00
57606;BME280;43430;48.204;11.556;2023-07-08T06:42:31;96178.41;;;20.03;100.00
57606;BME280;43430;48.204;11.556;2023-07-08T06:44:56;96179.97;;;20.09;100.00
57606;BME280;43430;48.204;11.556;2023-07-08T06:47:21;96184.13;;;20.30;100.00
57606;BME280;43430;48.204;11.556;2023-07-08T06:49:47;96188.03;;;20.43;100.00
57606;BME280;43430;48.204;11.556;2023-07-08T06:52:13;96180.75;;;20.54;100.00
57606;BME280;43430;48.204;11.556;2023-07-08T06:54:39;96191.59;;;20.73;100.00
57606;BME280;43430;48.204;11.556;2023-07-08T06:57:05;96185.63;;;20.81;100.00
57606;BME280;43430;48.204;11.556;2023-07-08T06:59:30;96182.16;;;20.80;100.00
57606;BME280;43430;48.204;11.556;2023-07-08T07:01:56;96191.78;;;20.81;100.00
57606;BME280;43430;48.204;11.556;2023-07-08T07:04:21;96194.44;;;20.86;100.00
57606;BME280;43430;48.204;11.556;2023-07-08T07:06:47;96198.56;;;20.74;100.00
57606;BME280;43430;48.204;11.556;2023-07-08T07:09:12;96203.81;;;20.84;100.00
57606;BME280;43430;48.204;11.556;2023-07-08T07:11:38;96204.34;;;20.86;100.00
57606;BME280;43430;48.204;11.556;2023-07-08T07:14:03;96203.25;;;20.87;100.00
57606;BME280;43430;48.204;11.556;2023-07-08T07:16:28;96196.25;;;20.91;100.00
57606;BME280;43430;48.204;11.556;2023-07-08T07:18:54;96198.28;;;21.04;100.00
57606;BME280;43430;48.204;11.556;2023-07-08T07:21:19;96206.31;;;21.33;100.00
57606;BME280;43430;48.204;11.556;2023-07-08T07:23:45;96195.59;;;21.33;100.00
57606;BME280;43430;48.204;11.556;2023-07-08T07:26:10;96202.00;;;21.38;100.00
57606;BME280;43430;48.204;11.556;2023-07-08T07:28:35;96202.78;;;20.80;100.00
57606;BME280;43430;48.204;11.556;2023-07-08T07:31:03;96203.47;;;20.96;100.00
57606;BME280;43430;48.204;11.556;2023-07-08T07:33:31;96206.75;;;21.17;100.00
57606;BME280;43430;48.204;11.556;2023-07-08T07:35:57;96205.00;;;21.02;100.00
57606;BME280;43430;48.204;11.556;2023-07-08T07:38:23;96199.50;;;21.17;100.00
57606;BME280;43430;48.204;11.556;2023-07-08T07:40:53;96199.13;;;21.00;100.00
57606;BME280;43430;48.204;11.556;2023-07-08T07:43:18;96195.28;;;20.82;100.00
57606;BME280;43430;48.204;11.556;2023-07-08T07:45:44;96202.13;;;21.22;100.00
57606;BME280;43430;48.204;11.556;2023-07-08T07:48:09;96203.69;;;21.58;100.00
57606;BME280;43430;48.204;11.556;2023-07-08T07:50:34;96218.16;;;21.80;100.00
57606;BME280;43430;48.204;11.556;2023-07-08T07:53:00;96222.47;;;22.00;100.00
57606;BME280;43430;48.204;11.556;2023-07-08T07:55:25;96226.66;;;21.88;100.00
57606;BME280;43430;48.204;11.556;2023-07-08T07:57:51;96233.63;;;21.89;100.00
57606;BME280;43430;48.204;11.556;2023-07-08T08:00:16;96230.06;;;22.17;100.00
57606;BME280;43430;48.204;11.556;2023-07-08T08:02:42;96238.34;;;22.40;100.00
57606;BME280;43430;48.204;11.556;2023-07-08T08:05:08;96253.09;;;22.42;100.00
57606;BME280;43430;48.204;11.556;2023-07-08T08:07:33;96262.59;;;22.35;100.00
57606;BME280;43430;48.204;11.556;2023-07-08T08:09:59;96258.50;;;22.18;100.00
57606;BME280;43430;48.204;11.556;2023-07-08T08:12:24;96255.78;;;22.23;100.00
57606;BME280;43430;48.204;11.556;2023-07-08T08:14:50;96259.09;;;22.15;100.00
57606;BME280;43430;48.204;11.556;2023-07-08T08:17:16;96268.91;;;21.77;100.00
57606;BME280;43430;48.204;11.556;2023-07-08T08:19:41;96273.34;;;21.39;100.00
57606;BME280;43430;48.204;11.556;2023-07-08T08:22:06;96282.38;;;21.48;100.00
57606;BME280;43430;48.204;11.556;2023-07-08T08:24:33;96283.66;;;21.55;100.00
57606;BME280;43430;48.204;11.556;2023-07-08T08:26:58;96279.88;;;21.80;100.00
57606;BME280;43430;48.204;11.556;2023-07-08T08:29:24;96290.66;;;21.51;100.00
57606;BME280;43430;48.204;11.556;2023-07-08T08:31:49;96291.28;;;21.67;100.00
57606;BME280;43430;48.204;11.556;2023-07-08T08:34:15;96291.97;;;21.78;100.00
57606;BME280;43430;48.204;11.556;2023-07-08T08:36:41;96293.94;;;21.72;100.00
57606;BME280;43430;48.204;11.556;2023-07-08T08:39:07;96279.06;;;21.56;100.00
57606;BME280;43430;48.204;11.556;2023-07-08T08:41:34;96284.53;;;21.99;100.00
57606;BME280;43430;48.204;11.556;2023-07-08T08:44:02;96280.09;;;22.08;100.00
57606;BME280;43430;48.204;11.556;2023-07-08T08:51:46;96287.56;;;21.68;100.00
57606;BME280;43430;48.204;11.556;2023-07-08T08:54:12;96278.19;;;21.90;100.00
57606;BME280;43430;48.204;11.556;2023-07-08T09:02:18;96281.53;;;22.24;100.00
57606;BME280;43430;48.204;11.556;2023-07-08T09:04:47;96277.84;;;22.39;100.00
57606;BME280;43430;48.204;11.556;2023-07-08T09:07:17;96282.94;;;22.41;100.00
57606;BME280;43430;48.204;11.556;2023-07-08T09:09:50;96276.91;;;22.30;100.00
57606;BME280;43430;48.204;11.556;2023-07-08T09:12:21;96289.19;;;21.88;100.00
57606;BME280;43430;48.204;11.556;2023-07-08T09:14:49;96286.38;;;21.74;100.00
57606;BME280;43430;48.204;11.556;2023-07-08T09:17:29;96300.59;;;21.51;100.00
57606;BME280;43430;48.204;11.556;2023-07-08T09:22:36;96288.59;;;22.20;100.00
57606;BME280;43430;48.204;11.556;2023-07-08T09:27:37;96288.22;;;22.27;100.00
57606;BME280;43430;48.204;11.556;2023-07-08T09:30:03;96296.63;;;22.20;100.00
57606;BME280;43430;48.204;11.556;2023-07-08T09:32:28;96296.34;;;22.22;100.00
57606;BME280;43430;48.204;11.556;2023-07-08T09:35:06;96292.94;;;22.35;100.00
57606;BME280;43430;48.204;11.556;2023-07-08T09:37:35;96297.88;;;22.47;100.00
57606;BME280;43430;48.204;11.556;2023-07-08T09:43:09;96291.72;;;22.84;100.00
57606;BME280;43430;48.204;11.556;2023-07-08T09:45:46;96291.50;;;23.32;100.00
57606;BME280;43430;48.204;11.556;2023-07-08T09:48:18;96283.53;;;23.27;100.00
57606;BME280;43430;48.204;11.556;2023-07-08T09:50:48;96272.22;;;23.44;100.00
57606;BME280;43430;48.204;11.556;2023-07-08T09:53:14;96270.81;;;23.60;100.00
57606;BME280;43430;48.204;11.556;2023-07-08T09:55:40;96277.28;;;22.99;100.00
57606;BME280;43430;48.204;11.556;2023-07-08T09:58:11;96266.66;;;23.21;100.00
57606;BME280;43430;48.204;11.556;2023-07-08T10:00:40;96266.94;;;23.06;100.00
57606;BME280;43430;48.204;11.556;2023-07-08T10:03:26;96270.88;;;22.95;100.00
57606;BME280;43430;48.204;11.556;2023-07-08T10:05:54;96271.13;;;23.45;100.00
57606;BME280;43430;48.204;11.556;2023-07-08T10:08:24;96287.75;;;23.33;100.00
57606;BME280;43430;48.204;11.556;2023-07-08T10:10:58;96290.75;;;23.45;100.00
57606;BME280;43430;48.204;11.556;2023-07-08T10:13:39;96286.34;;;23.36;100.00
57606;BME280;43430;48.204;11.556;2023-07-08T10:16:15;96285.22;;;23.69;100.00
57606;BME280;43430;48.204;11.556;2023-07-08T10:18:42;96285.75;;;23.99;100.00
57606;BME280;43430;48.204;11.556;2023-07-08T10:23:55;96295.81;;;24.07;99.59
57606;BME280;43430;48.204;11.556;2023-07-08T10:26:29;96288.72;;;24.25;98.79
57606;BME280;43430;48.204;11.556;2023-07-08T10:43:18;96294.91;;;24.76;93.70
57606;BME280;43430;48.204;11.556;2023-07-08T10:51:47;96290.03;;;24.78;92.21
57606;BME280;43430;48.204;11.556;2023-07-08T11:00:11;96278.41;;;25.14;87.06
57606;BME280;43430;48.204;11.556;2023-07-08T11:07:52;96273.19;;;25.17;87.77
57606;BME280;43430;48.204;11.556;2023-07-08T11:10:29;96278.03;;;25.06;90.84
57606;BME280;43430;48.204;11.556;2023-07-08T11:13:03;96271.78;;;25.20;85.01
57606;BME280;43430;48.204;11.556;2023-07-08T11:15:40;96274.81;;;25.04;89.74
57606;BME280;43430;48.204;11.556;2023-07-08T11:18:15;96271.63;;;25.16;83.37
57606;BME280;43430;48.204;11.556;2023-07-08T11:20:48;96271.84;;;25.60;79.97
57606;BME280;43430;48.204;11.556;2023-07-08T11:23:43;96267.78;;;25.71;78.48
57606;BME280;43430;48.204;11.556;2023-07-08T11:26:37;96264.22;;;26.01;74.76
57606;BME280;43430;48.204;11.556;2023-07-08T11:29:20;96263.44;;;25.92;75.32
57606;BME280;43430;48.204;11.556;2023-07-08T11:31:47;96262.69;;;26.18;63.20
57606;BME280;43430;48.204;11.556;2023-07-08T11:34:15;96267.38;;;26.52;59.28
57606;BME280;43430;48.204;11.556;2023-07-08T11:36:42;96258.00;;;26.67;54.98
57606;BME280;43430;48.204;11.556;2023-07-08T11:42:14;96254.81;;;26.56;57.21
57606;BME280;43430;48.204;11.556;2023-07-08T11:44:51;96255.00;;;26.94;48.27
57606;BME280;43430;48.204;11.556;2023-07-08T11:47:41;96248.91;;;26.97;52.29
57606;BME280;43430;48.204;11.556;2023-07-08T11:50:22;96243.69;;;26.92;54.30
57606;BME280;43430;48.204;11.556;2023-07-08T11:53:01;96245.56;;;27.18;47.41
57606;BME280;43430;48.204;11.556;2023-07-08T11:55:37;96243.16;;;27.25;40.77
57606;BME280;43430;48.204;11.556;2023-07-08T11:58:07;96238.88;;;27.07;50.02
57606;BME280;43430;48.204;11.556;2023-07-08T12:00:33;96240.66;;;27.03;48.82
57606;BME280;43430;48.204;11.556;2023-07-08T12:03:21;96243.50;;;26.97;45.83
57606;BME280;43430;48.204;11.556;2023-07-08T12:05:47;96236.03;;;27.20;48.29
57606;BME280;43430;48.204;11.556;2023-07-08T12:08:18;96230.53;;;27.47;46.21
57606;BME280;43430;48.204;11.556;2023-07-08T12:10:50;96227.97;;;27.50;43.66
57606;BME280;43430;48.204;11.556;2023-07-08T12:13:22;96223.41;;;27.25;44.24
57606;BME280;43430;48.204;11.556;2023-07-08T12:15:48;96236.47;;;27.40;46.49
57606;BME280;43430;48.204;11.556;2023-07-08T12:18:19;96229.31;;;27.18;50.00
57606;BME280;43430;48.204;11.556;2023-07-08T12:20:48;96227.41;;;27.10;49.40
57606;BME280;43430;48.204;11.556;2023-07-08T12:23:18;96219.94;;;27.07;48.21
57606;BME280;43430;48.204;11.556;2023-07-08T12:25:44;96220.13;;;27.02;47.80
57606;BME280;43430;48.204;11.556;2023-07-08T12:28:11;96215.63;;;27.23;46.37
57606;BME280;43430;48.204;11.556;2023-07-08T12:30:38;96223.72;;;27.32;43.08
57606;BME280;43430;48.204;11.556;2023-07-08T12:33:11;96224.50;;;27.32;43.12
57606;BME280;43430;48.204;11.556;2023-07-08T12:35:37;96223.31;;;27.59;44.88
57606;BME280;43430;48.204;11.556;2023-07-08T12:40:40;96217.50;;;27.31;39.29
57606;BME280;43430;48.204;11.556;2023-07-08T12:43:09;96216.00;;;27.60;41.82
57606;BME280;43430;48.204;11.556;2023-07-08T12:45:35;96208.00;;;27.63;36.51
57606;BME280;43430;48.204;11.556;2023-07-08T12:48:00;96202.13;;;27.53;39.70
57606;BME280;43430;48.204;11.556;2023-07-08T12:50:26;96201.97;;;27.58;37.46
57606;BME280;43430;48.204;11.556;2023-07-08T12:52:51;96209.75;;;27.59;37.23
57606;BME280;43430;48.204;11.556;2023-07-08T12:55:17;96212.03;;;27.87;37.37
57606;BME280;43430;48.204;11.556;2023-07-08T12:57:46;96210.19;;;27.79;35.84
57606;BME280;43430;48.204;11.556;2023-07-08T13:00:16;96213.75;;;27.62;35.96
57606;BME280;43430;48.204;11.556;2023-07-08T13:02:47;96216.72;;;27.69;35.90
57606;BME280;43430;48.204;11.556;2023-07-08T13:05:14;96215.16;;;27.68;35.70
57606;BME280;43430;48.204;11.556;2023-07-08T13:07:41;96208.44;;;27.74;34.92
57606;BME280;43430;48.204;11.556;2023-07-08T13:10:15;96218.09;;;27.92;33.85
57606;BME280;43430;48.204;11.556;2023-07-08T13:12:41;96216.81;;;27.90;33.80
57606;BME280;43430;48.204;11.556;2023-07-08T13:15:12;96220.56;;;28.06;35.85
57606;BME280;43430;48.204;11.556;2023-07-08T13:17:39;96220.75;;;28.52;35.20
57606;BME280;43430;48.204;11.556;2023-07-08T13:20:13;96215.84;;;28.66;33.02
57606;BME280;43430;48.204;11.556;2023-07-08T13:22:39;96222.34;;;28.74;32.70
57606;BME280;43430;48.204;11.556;2023-07-08T13:25:13;96225.06;;;28.74;33.24
57606;BME280;43430;48.204;11.556;2023-07-08T13:27:39;96218.25;;;28.47;31.71
57606;BME280;43430;48.204;11.556;2023-07-08T13:30:17;96216.19;;;28.44;32.51
57606;BME280;43430;48.204;11.556;2023-07-08T13:32:43;96218.63;;;28.07;33.21
57606;BME280;43430;48.204;11.556;2023-07-08T13:35:36;96214.84;;;28.29;33.15
57606;BME280;43430;48.204;11.556;2023-07-08T13:38:03;96208.41;;;28.33;32.96
57606;BME280;43430;48.204;11.556;2023-07-08T13:40:30;96208.56;;;28.37;33.23
57606;BME280;43430;48.204;11.556;2023-07-08T13:42:55;96200.50;;;28.49;33.36
57606;BME280;43430;48.204;11.556;2023-07-08T13:45:27;96211.81;;;28.51;33.59
57606;BME280;43430;48.204;11.556;2023-07-08T13:48:14;96210.00;;;28.76;32.37